Tune, Denmark
Current Conditions -  °F | °C
As of 11:20 AM on Wednesday 26 Nov 2014 (Local Time) from EKRK Reporting Station
Broken Clouds Broken Clouds  
Wind Chill: 45°   Ceiling: 2200
Heat Index: 45°   Visibility: 6mi
Dew Point: 39°   Wind: 3mph
Humidity: 81%   Direction: 50°NE
Pressure: 30.27"   Gusts: NA
Location:  55.6°N, 12.18°E
Report Text: EKRK 261020Z AUTO 05003KT 9999NDV BKN022/// 07/04 Q1025
Loading
Personal Weather Stations






























Interactive Weather Map New forecast layout! Learn more

10-Day Weather Forecast

Advertisements
Track Severe Weather on mobile